Time;durP1;ratioP1;P1;durP2;ratioP2;P2;SDS_P1;SDS_P2;PMS_P1;PMS_P2;Temp;Humidity;BMP_temperature;BMP_pressure;BME280_temperature;BME280_humidity;BME280_pressure;Samples;Min_cycle;Max_cycle;Signal;HPM_P1;HPM_P2
2022/07/02 00:00:43;;;;;;;48.80;28.80;;;;;;;-143.10;100.00;51179.06;5044673;28;20045;-68
2022/07/02 00:03:38;;;;;;;47.90;29.73;;;;;;;-143.10;100.00;51173.19;5044864;28;20132;-67
2022/07/02 00:06:29;;;;;;;44.72;28.73;;;;;;;-143.10;100.00;51139.91;5044163;28;20435;-68
2022/07/02 00:09:19;;;;;;;45.95;28.73;;;;;;;-143.10;100.00;51165.34;5025963;28;20053;-68
2022/07/02 00:12:01;;;;;;;46.70;29.92;;;;;;;-143.10;100.00;51151.66;5030187;28;20055;-68
2022/07/02 00:14:56;;;;;;;43.10;26.50;;;;;;;-143.10;100.00;51139.91;5044587;28;20134;-68
2022/07/02 00:17:39;;;;;;;46.70;27.08;;;;;;;-143.10;100.00;51100.75;5028875;28;20136;-68
2022/07/02 00:20:35;;;;;;;48.03;28.27;;;;;;;-143.10;100.00;51143.81;5047790;28;20053;-68
2022/07/02 00:23:24;;;;;;;45.08;28.15;;;;;;;-143.10;100.00;51182.97;5044527;28;20048;-67
2022/07/02 00:26:13;;;;;;;43.05;27.08;;;;;;;-143.10;100.00;51167.31;5060346;28;20110;-68
2022/07/02 00:29:08;;;;;;;49.40;30.25;;;;;;;-143.10;100.00;51186.88;5065210;28;20044;-68
2022/07/02 00:31:58;;;;;;;48.63;28.70;;;;;;;-143.10;100.00;51159.47;5040928;28;20590;-68
2022/07/02 00:34:44;;;;;;;50.60;30.88;;;;;;;-143.10;100.00;51094.88;5045154;28;20055;-68
2022/07/02 00:37:34;;;;;;;46.60;28.98;;;;;;;-143.10;100.00;51175.13;5029260;28;20642;-67
2022/07/02 00:40:19;;;;;;;51.40;28.50;;;;;;;-143.10;100.00;51159.47;5044696;28;20041;-67
2022/07/02 00:43:10;;;;;;;44.67;29.10;;;;;;;-143.10;100.00;51147.72;5044472;28;20040;-67
2022/07/02 00:45:54;;;;;;;48.90;29.13;;;;;;;-143.10;100.00;51132.06;5045227;28;20057;-68
2022/07/02 00:48:44;;;;;;;46.70;29.88;;;;;;;-143.10;100.00;51120.31;5047053;28;20053;-67
2022/07/02 00:51:26;;;;;;;49.95;30.70;;;;;;;-143.10;100.00;51139.91;5044277;28;20452;-68
2022/07/02 00:54:15;;;;;;;57.88;31.95;;;;;;;-143.10;100.00;51157.50;5048269;28;20134;-68
2022/07/02 00:56:57;;;;;;;63.92;35.88;;;;;;;-143.10;100.00;51147.72;5049243;28;20049;-68
2022/07/02 00:59:47;;;;;;;53.90;32.70;;;;;;;-143.10;100.00;51149.69;5031520;28;20095;-67
2022/07/02 01:02:31;;;;;;;61.45;34.90;;;;;;;-143.10;100.00;51143.81;5049839;28;20048;-68
2022/07/02 01:05:22;;;;;;;61.47;34.85;;;;;;;-143.10;100.00;51147.72;5052539;28;20080;-68
2022/07/02 01:11:14;;;;;;;59.58;36.88;;;;;;;-143.10;100.00;51135.97;5049996;28;20468;-68
2022/07/02 01:13:57;;;;;;;70.18;38.70;;;;;;;-143.10;100.00;51151.66;5050191;28;20126;-68
2022/07/02 01:16:46;;;;;;;78.47;40.80;;;;;;;-143.10;100.00;51167.31;5048617;28;20073;-68
2022/07/02 01:19:28;;;;;;;61.50;35.67;;;;;;;-143.10;100.00;51132.06;5033299;28;20487;-68
2022/07/02 01:22:25;;;;;;;62.80;37.53;;;;;;;-143.10;100.00;51135.97;5028013;28;20057;-68
2022/07/02 01:25:08;;;;;;;63.97;34.97;;;;;;;-143.10;100.00;51143.81;5028588;28;20049;-67
2022/07/02 01:27:58;;;;;;;61.83;34.63;;;;;;;-143.10;100.00;51157.50;5009908;28;20492;-68
2022/07/02 01:30:40;;;;;;;62.08;35.83;;;;;;;-143.10;100.00;51137.94;5028334;28;20049;-68
2022/07/02 01:33:29;;;;;;;57.70;34.35;;;;;;;-143.10;100.00;51147.72;5027573;28;20061;-68
2022/07/02 01:36:18;;;;;;;58.17;33.75;;;;;;;-143.10;100.00;51177.09;5032247;28;20417;-69
2022/07/02 01:39:07;;;;;;;56.58;32.50;;;;;;;-143.10;100.00;51194.72;5030172;28;20389;-68
2022/07/02 01:41:49;;;;;;;55.88;34.28;;;;;;;-143.10;100.00;51145.78;5047633;28;20056;-68
2022/07/02 01:44:38;;;;;;;55.25;32.33;;;;;;;-143.10;100.00;51153.59;5047505;28;20119;-68
2022/07/02 01:47:21;;;;;;;52.83;31.67;;;;;;;-143.10;100.00;51165.34;5047467;28;20044;-68
2022/07/02 01:50:10;;;;;;;55.13;32.70;;;;;;;-143.10;100.00;51143.81;5047002;28;20045;-67
2022/07/02 01:52:56;;;;;;;53.17;33.30;;;;;;;-143.10;100.00;51134.03;5045954;28;20057;-68
2022/07/02 01:55:45;;;;;;;54.65;35.13;;;;;;;-143.10;100.00;51190.81;5007961;28;20061;-67
2022/07/02 01:58:27;;;;;;;51.42;31.30;;;;;;;-143.10;100.00;51165.34;5007154;28;20061;-68
2022/07/02 02:01:16;;;;;;;44.75;28.23;;;;;;;-143.10;100.00;51159.47;5007626;28;20120;-68
2022/07/02 02:03:58;;;;;;;49.70;31.13;;;;;;;-143.10;100.00;51167.31;5024486;28;20056;-67
2022/07/02 02:06:47;;;;;;;49.13;29.83;;;;;;;-143.10;100.00;51159.47;5027226;28;20057;-68
2022/07/02 02:09:36;;;;;;;49.42;29.95;;;;;;;-143.10;100.00;51139.91;5026996;28;20060;-68
2022/07/02 02:12:25;;;;;;;50.35;29.70;;;;;;;-143.10;100.00;51171.22;5025370;28;20049;-68
2022/07/02 02:15:07;;;;;;;44.53;29.10;;;;;;;-143.10;100.00;51149.69;5025626;28;20540;-69
2022/07/02 02:17:56;;;;;;;59.25;35.00;;;;;;;-143.10;100.00;51132.06;5021994;28;20060;-69
2022/07/02 02:20:51;;;;;;;59.03;34.95;;;;;;;-143.10;100.00;51171.22;5036206;28;20045;-68
2022/07/02 02:23:26;;;;;;;54.25;33.38;;;;;;;-143.10;100.00;51151.66;5039694;28;20076;-68
2022/07/02 02:26:16;;;;;;;52.38;32.00;;;;;;;-143.10;100.00;51175.13;5033015;28;20053;-69
2022/07/02 02:28:58;;;;;;;59.75;35.08;;;;;;;-143.10;100.00;51141.84;5042807;28;20621;-67
2022/07/02 02:31:53;;;;;;;53.08;31.83;;;;;;;-143.10;100.00;51128.16;5043176;28;20049;-68
2022/07/02 02:34:28;;;;;;;48.28;29.60;;;;;;;-143.10;100.00;51132.06;5006634;28;20747;-69
2022/07/02 02:37:17;;;;;;;51.42;31.20;;;;;;;-143.10;100.00;51141.84;5006460;28;20468;-68
2022/07/02 02:40:06;;;;;;;52.85;32.45;;;;;;;-143.10;100.00;51175.13;5007345;28;20049;-68
2022/07/02 02:42:55;;;;;;;53.10;32.15;;;;;;;-143.10;100.00;51124.22;5006687;28;20104;-67
2022/07/02 02:45:37;;;;;;;51.25;31.48;;;;;;;-143.10;100.00;51151.66;5006327;28;20070;-68
2022/07/02 02:48:26;;;;;;;52.90;32.60;;;;;;;-143.10;100.00;51153.59;5008989;28;20054;-68
2022/07/02 02:51:14;;;;;;;49.63;31.75;;;;;;;-143.10;100.00;51163.38;5006339;28;20153;-68
2022/07/02 02:54:03;;;;;;;51.13;31.35;;;;;;;-143.10;100.00;51120.31;5006673;28;20471;-68
2022/07/02 02:56:52;;;;;;;47.75;30.45;;;;;;;-143.10;100.00;51145.78;5006750;28;20049;-68
2022/07/02 02:59:34;;;;;;;52.30;31.58;;;;;;;-143.10;100.00;51145.78;5006131;28;20050;-68
2022/07/02 03:02:23;;;;;;;41.05;28.13;;;;;;;-143.10;100.00;51145.78;5006217;28;20053;-68
2022/07/02 03:05:05;;;;;;;40.60;29.35;;;;;;;-143.10;100.00;51120.31;5020497;28;20052;-68
2022/07/02 03:07:54;;;;;;;48.53;29.50;;;;;;;-143.10;100.00;51190.81;5002406;28;20069;-68
2022/07/02 03:10:36;;;;;;;43.05;27.80;;;;;;;-143.10;100.00;51122.28;5026129;28;20046;-68
2022/07/02 03:13:25;;;;;;;42.08;29.08;;;;;;;-143.10;100.00;51135.97;5026363;28;20055;-68
2022/07/02 03:16:07;;;;;;;42.35;28.45;;;;;;;-143.10;100.00;51135.97;5012968;28;20057;-68
2022/07/02 03:18:56;;;;;;;41.25;28.25;;;;;;;-143.10;100.00;51155.56;5019099;28;20050;-68
2022/07/02 03:21:44;;;;;;;40.75;26.90;;;;;;;-143.10;100.00;51124.22;5049946;27;20041;-68
2022/07/02 03:24:39;;;;;;;35.53;26.65;;;;;;;-143.10;100.00;51173.19;5028056;28;20539;-68
2022/07/02 03:27:15;;;;;;;40.38;27.73;;;;;;;-143.10;100.00;51135.97;5017972;28;20057;-69
2022/07/02 03:30:06;;;;;;;43.42;29.70;;;;;;;-143.10;100.00;51134.03;5064427;28;20743;-68
2022/07/02 03:32:48;;;;;;;43.75;27.50;;;;;;;-143.10;100.00;51155.56;5048354;28;20668;-67
2022/07/02 03:35:37;;;;;;;44.45;29.27;;;;;;;-143.10;100.00;51208.41;5048463;28;20308;-67
2022/07/02 03:38:19;;;;;;;40.03;26.48;;;;;;;-143.10;100.00;51141.84;5046061;28;20611;-68
2022/07/02 03:41:14;;;;;;;41.83;27.13;;;;;;;-143.10;100.00;51135.97;5045171;28;20048;-67
2022/07/02 03:43:50;;;;;;;38.05;26.17;;;;;;;-143.10;100.00;51157.50;5046087;28;20044;-68
2022/07/02 03:46:39;;;;;;;37.65;26.17;;;;;;;-143.10;100.00;51153.59;5045271;28;20052;-68
2022/07/02 03:49:21;;;;;;;36.97;26.05;;;;;;;-143.10;100.00;51145.78;5045201;28;20040;-68
2022/07/02 03:52:10;;;;;;;46.10;25.90;;;;;;;-143.10;100.00;51147.72;5045319;28;20119;-68
2022/07/02 03:54:52;;;;;;;47.00;28.33;;;;;;;-143.10;100.00;51139.91;5028187;28;20049;-67
2022/07/02 03:57:41;;;;;;;38.40;24.33;;;;;;;-143.10;100.00;51145.78;5046033;28;20057;-68
2022/07/02 04:00:30;;;;;;;36.15;23.65;;;;;;;-143.10;100.00;51134.03;5046675;28;20053;-67
2022/07/02 04:03:12;;;;;;;31.40;21.58;;;;;;;-143.10;100.00;51145.78;5028511;28;20056;-67
2022/07/02 04:06:01;;;;;;;41.50;24.02;;;;;;;-143.10;100.00;51143.81;5030455;28;20073;-67
2022/07/02 04:08:42;;;;;;;32.90;23.90;;;;;;;-143.10;100.00;51134.03;5031969;28;20096;-67
2022/07/02 04:11:32;;;;;;;37.20;23.90;;;;;;;-143.10;100.00;51134.03;5029095;28;20104;-67
2022/07/02 04:14:14;;;;;;;32.22;22.35;;;;;;;-143.10;100.00;51155.56;5026510;28;20057;-67
2022/07/02 04:17:03;;;;;;;32.80;22.05;;;;;;;-143.10;100.00;51151.66;5028629;28;20080;-69
2022/07/02 04:19:52;;;;;;;31.70;23.30;;;;;;;-143.10;100.00;51120.31;5026763;28;20728;-70
2022/07/02 04:22:47;;;;;;;29.65;21.52;;;;;;;-143.10;100.00;51124.22;5046429;28;20041;-67
2022/07/02 04:25:43;;;;;;;31.88;21.38;;;;;;;-143.10;100.00;51135.97;5045262;28;20048;-67
2022/07/02 04:28:18;;;;;;;36.30;22.63;;;;;;;-143.10;100.00;51173.19;5044809;28;20049;-67
2022/07/02 04:31:07;;;;;;;30.02;21.17;;;;;;;-143.10;100.00;51139.91;5045590;28;20128;-67
2022/07/02 04:33:49;;;;;;;32.72;21.95;;;;;;;-143.10;100.00;51134.03;5045501;28;20144;-65
2022/07/02 04:36:45;;;;;;;39.72;23.27;;;;;;;-143.10;100.00;51143.81;5045274;28;20650;-65
2022/07/02 04:39:26;;;;;;;34.60;23.85;;;;;;;-143.10;100.00;51175.13;5045080;28;20041;-65
2022/07/02 04:42:21;;;;;;;34.67;21.50;;;;;;;-143.10;100.00;51132.06;5044941;28;20457;-65
2022/07/02 04:44:56;;;;;;;33.45;22.67;;;;;;;-143.10;100.00;51139.91;5045215;28;20056;-67
2022/07/02 04:47:51;;;;;;;29.35;22.05;;;;;;;-143.10;100.00;51137.94;5045064;28;20119;-67
2022/07/02 04:50:26;;;;;;;34.25;21.52;;;;;;;-143.10;100.00;51130.09;5063584;28;20139;-66
2022/07/02 04:53:16;;;;;;;28.67;20.42;;;;;;;-143.10;100.00;51147.72;5064733;28;20049;-66
2022/07/02 04:56:05;;;;;;;34.08;21.38;;;;;;;-143.10;100.00;51155.56;5047742;28;20052;-65
2022/07/02 04:58:47;;;;;;;29.65;21.67;;;;;;;-143.10;100.00;51155.56;5065181;28;20044;-64
2022/07/02 05:01:36;;;;;;;32.53;22.48;;;;;;;-143.10;100.00;51128.16;5047417;28;20052;-66
2022/07/02 05:04:25;;;;;;;32.03;20.98;;;;;;;-143.10;100.00;51147.72;5056195;28;20049;-66
2022/07/02 05:07:07;;;;;;;30.83;21.40;;;;;;;-143.10;100.00;51124.22;5045062;28;20055;-66
2022/07/02 05:10:03;;;;;;;32.08;22.17;;;;;;;-143.10;100.00;51135.97;5044317;28;20536;-67
2022/07/02 05:12:45;;;;;;;31.02;22.13;;;;;;;-143.10;100.00;51128.16;5044646;28;20053;-65
2022/07/02 05:15:34;;;;;;;33.00;23.15;;;;;;;-143.10;100.00;51128.16;5044857;28;20111;-66
2022/07/02 05:18:16;;;;;;;31.38;20.95;;;;;;;-143.10;100.00;51126.19;5043655;28;20049;-66
2022/07/02 05:21:14;;;;;;;27.60;20.40;;;;;;;-143.10;100.00;51112.50;5037178;28;20127;-66
2022/07/02 05:24:09;;;;;;;31.48;22.98;;;;;;;-143.10;100.00;51132.06;5024409;28;20532;-66
2022/07/02 05:27:04;;;;;;;30.60;22.75;;;;;;;-143.10;100.00;51147.72;5004732;28;20128;-67
2022/07/02 05:29:39;;;;;;;34.78;23.17;;;;;;;-143.10;100.00;51122.28;5015582;28;20050;-68
2022/07/02 05:32:28;;;;;;;32.08;22.65;;;;;;;-143.10;100.00;51104.66;5008498;28;20153;-66
2022/07/02 05:35:11;;;;;;;35.90;24.45;;;;;;;-143.10;100.00;51112.50;5006126;28;20061;-67
2022/07/02 05:38:00;;;;;;;27.75;22.05;;;;;;;-143.10;100.00;51124.22;5025096;28;20107;-68
2022/07/02 05:40:42;;;;;;;31.63;22.88;;;;;;;-143.10;100.00;51116.41;5027666;28;20115;-67
2022/07/02 05:43:30;;;;;;;30.15;22.67;;;;;;;-143.10;100.00;51098.78;5029045;28;20492;-67
2022/07/02 05:46:20;;;;;;;32.60;23.35;;;;;;;-143.10;100.00;51108.56;5027932;28;20058;-67
2022/07/02 05:49:15;;;;;;;30.75;21.88;;;;;;;-143.10;100.00;51116.41;5027110;28;20048;-68
2022/07/02 05:51:50;;;;;;;27.73;20.65;;;;;;;-143.10;100.00;51087.03;5025873;28;20045;-68
2022/07/02 05:54:38;;;;;;;30.15;21.38;;;;;;;-143.10;99.07;51090.94;5023659;28;20103;-69
2022/07/02 05:57:21;;;;;;;28.27;19.23;;;;;;;-143.10;98.55;51077.25;5023030;28;20052;-67
2022/07/02 06:00:11;;;;;;;30.63;20.13;;;;;;;-143.10;95.56;51090.94;5028513;28;20726;-68
2022/07/02 06:02:54;;;;;;;27.27;20.40;;;;;;;-143.10;92.35;51106.63;5024941;28;20045;-68
2022/07/02 06:08:46;;;;;;;29.70;20.38;;;;;;;-143.10;95.46;51090.94;5026242;28;20041;-67
2022/07/02 06:11:35;;;;;;;21.23;16.73;;;;;;;-143.10;91.35;51071.38;5026759;28;20127;-68
2022/07/02 06:14:17;;;;;;;21.58;17.05;;;;;;;-143.10;95.34;51077.25;5024142;28;20123;-67
2022/07/02 06:17:06;;;;;;;24.70;18.48;;;;;;;-143.10;96.75;51114.44;5026766;28;20112;-68
2022/07/02 06:19:55;;;;;;;30.23;18.67;;;;;;;-143.10;95.86;51106.63;5025186;28;20055;-68
2022/07/02 06:22:37;;;;;;;25.05;17.73;;;;;;;-143.10;96.82;51100.75;5036416;28;20072;-68
2022/07/02 06:25:27;;;;;;;24.50;19.05;;;;;;;-143.10;95.19;51098.78;5044109;28;20056;-67
2022/07/02 06:28:16;;;;;;;26.33;17.70;;;;;;;-143.10;90.16;51073.34;5027092;28;20041;-68
2022/07/02 06:31:05;;;;;;;24.38;19.77;;;;;;;-143.10;91.81;51106.63;5028628;28;20446;-68
2022/07/02 06:33:47;;;;;;;24.70;18.42;;;;;;;-143.10;93.94;51073.34;5027405;28;20749;-70
2022/07/02 06:36:36;;;;;;;28.75;19.25;;;;;;;-143.10;94.18;51077.25;5026859;28;20056;-69
2022/07/02 06:39:25;;;;;;;26.80;19.52;;;;;;;-143.10;89.82;51124.22;5026815;28;20073;-69
2022/07/02 06:42:20;;;;;;;23.63;17.85;;;;;;;-143.10;95.86;51081.16;5025352;28;20080;-69
2022/07/02 06:45:05;;;;;;;26.13;18.15;;;;;;;-143.10;93.76;51112.50;5033942;28;20037;-67
2022/07/02 06:47:54;;;;;;;22.73;17.77;;;;;;;-143.10;90.95;51073.34;5037058;28;20052;-68
2022/07/02 06:50:49;;;;;;;21.85;18.75;;;;;;;-143.10;86.68;51075.28;5043524;28;20068;-70
2022/07/02 06:53:25;;;;;;;24.40;20.35;;;;;;;-143.10;94.26;51067.47;5048449;28;20045;-68
2022/07/02 06:56:14;;;;;;;26.30;19.30;;;;;;;-143.10;91.40;51085.06;5066529;28;20117;-68
2022/07/02 06:58:56;;;;;;;29.40;19.58;;;;;;;-143.10;92.20;51067.47;5060413;28;20099;-69
2022/07/02 07:01:45;;;;;;;21.70;19.05;;;;;;;-143.10;89.14;51094.88;5047566;28;20076;-68
2022/07/02 07:04:56;;;;;;;24.52;20.50;;;;;;;-143.10;85.63;51065.50;5042472;28;20045;-69
2022/07/02 07:07:44;;;;;;;22.25;18.42;;;;;;;-143.10;85.77;51051.78;5043133;28;20052;-71
2022/07/02 07:10:27;;;;;;;27.75;20.63;;;;;;;-143.10;84.48;51049.84;5043629;28;20061;-69
2022/07/02 07:13:16;;;;;;;27.67;20.75;;;;;;;-143.10;85.84;51128.16;4695183;28;10000658;-70
2022/07/02 07:16:05;;;;;;;26.88;20.27;;;;;;;-143.10;90.29;51090.94;5043266;28;20556;-72
2022/07/02 07:18:59;;;;;;;34.03;24.45;;;;;;;-143.10;91.58;51100.75;5041265;28;20045;-72
2022/07/02 07:22:02;;;;;;;25.83;20.23;;;;;;;-143.10;91.73;51067.47;5039339;28;20053;-69
2022/07/02 07:24:57;;;;;;;23.38;20.05;;;;;;;-143.10;90.07;51083.13;5024347;28;20052;-72
2022/07/02 07:27:32;;;;;;;21.80;17.63;;;;;;;-143.10;84.62;51069.41;5026466;28;20065;-67
2022/07/02 07:30:27;;;;;;;23.13;17.95;;;;;;;-143.10;81.23;51051.78;5018863;28;20049;-69
2022/07/02 07:33:02;;;;;;;24.52;18.63;;;;;;;-143.10;83.37;51081.16;5024716;28;20473;-67
2022/07/02 07:35:57;;;;;;;21.10;18.77;;;;;;;-143.10;85.18;51069.41;5025621;28;20106;-68
2022/07/02 07:38:32;;;;;;;20.08;16.38;;;;;;;-143.10;84.19;51065.50;5013575;28;20059;-71
2022/07/02 07:41:23;;;;;;;19.60;16.52;;;;;;;-143.10;83.93;51065.50;5015640;28;20048;-70
2022/07/02 07:44:05;;;;;;;23.17;18.27;;;;;;;-143.10;80.02;51083.13;5017966;28;20045;-68
2022/07/02 07:46:54;;;;;;;20.92;16.42;;;;;;;-143.10;83.72;51051.78;5004436;28;20152;-69
2022/07/02 07:49:36;;;;;;;20.83;17.77;;;;;;;-143.10;84.94;51083.13;4989800;28;20145;-67
2022/07/02 07:52:32;;;;;;;19.45;16.73;;;;;;;-143.10;83.95;51073.34;4989800;28;20046;-69
2022/07/02 07:55:08;;;;;;;19.83;16.23;;;;;;;-143.10;85.87;51067.47;5004446;28;20057;-68
2022/07/02 07:57:57;;;;;;;19.67;17.05;;;;;;;-143.10;87.39;51030.25;5003511;28;20108;-69
2022/07/02 08:00:46;;;;;;;22.88;16.50;;;;;;;-143.10;85.12;51081.16;5003262;28;20049;-71
2022/07/02 08:03:28;;;;;;;20.45;15.90;;;;;;;-143.10;87.34;51102.69;4984463;28;20074;-67
2022/07/02 08:06:18;;;;;;;18.13;15.93;;;;;;;-143.10;86.24;51085.06;5039370;28;20136;-67
2022/07/02 08:09:07;;;;;;;22.95;16.98;;;;;;;-143.10;85.86;51083.13;5038083;28;20463;-66
2022/07/02 08:12:06;;;;;;;21.00;16.50;;;;;;;-143.10;85.44;51059.63;5416746;22;20042;-68
2022/07/02 08:14:55;;;;;;;18.38;16.45;;;;;;;-143.10;87.73;51085.06;5001659;28;20041;-68
2022/07/02 08:17:45;;;;;;;23.35;16.83;;;;;;;-143.10;85.66;51057.66;5002978;28;20149;-70
2022/07/02 08:20:27;;;;;;;22.27;16.75;;;;;;;-143.10;87.86;51077.25;5004439;28;20050;-71
2022/07/02 08:23:16;;;;;;;20.73;15.32;;;;;;;-143.10;87.61;51077.25;5004910;28;20049;-68
2022/07/02 08:25:58;;;;;;;20.98;14.75;;;;;;;-143.10;87.29;51096.81;4995475;28;20069;-70
2022/07/02 08:28:47;;;;;;;16.90;14.38;;;;;;;-143.10;88.69;51102.69;4991827;28;20096;-73
2022/07/02 08:31:29;;;;;;;16.30;13.85;;;;;;;-143.10;88.68;51075.28;5005901;28;20050;-73
2022/07/02 08:34:18;;;;;;;20.67;15.00;;;;;;;-143.10;87.75;51069.41;5002607;28;20046;-73
2022/07/02 08:37:00;;;;;;;18.42;14.00;;;;;;;-143.10;91.35;51069.41;4986429;28;20181;-69
2022/07/02 08:39:49;;;;;;;17.45;13.70;;;;;;;-143.10;86.68;51069.41;4953058;28;20129;-70
2022/07/02 08:42:31;;;;;;;17.17;14.13;;;;;;;-143.10;87.64;51079.19;5002456;28;20049;-70
2022/07/02 08:45:21;;;;;;;16.15;13.75;;;;;;;-143.10;90.30;51087.03;5005690;28;20512;-66
2022/07/02 08:48:07;;;;;;;19.50;14.07;;;;;;;-143.10;86.72;51083.13;4989890;28;20053;-68
2022/07/02 08:50:57;;;;;;;14.13;11.90;;;;;;;-143.10;88.75;51079.19;5005425;28;20108;-67
2022/07/02 08:53:41;;;;;;;15.85;11.88;;;;;;;-143.10;85.72;51098.78;4973793;28;20048;-68
2022/07/02 08:56:32;;;;;;;16.00;11.50;;;;;;;-143.10;85.88;51075.28;5005578;28;20077;-68
2022/07/02 08:59:14;;;;;;;14.95;11.65;;;;;;;-143.10;84.33;51032.22;5005052;28;20046;-71
2022/07/02 09:02:04;;;;;;;15.85;10.75;;;;;;;-143.10;87.75;51049.84;5006128;28;20046;-68
2022/07/02 09:04:54;;;;;;;13.75;10.65;;;;;;;-143.10;89.93;51069.41;5005062;28;20045;-69
2022/07/02 09:07:45;;;;;;;18.00;12.52;;;;;;;-143.10;87.25;51089.00;4990359;28;20049;-69
2022/07/02 09:10:41;;;;;;;14.10;10.52;;;;;;;-143.10;86.76;51092.91;5005464;28;20418;-69
2022/07/02 09:13:37;;;;;;;15.57;11.30;;;;;;;-143.10;83.13;51085.06;4999880;28;20061;-65
2022/07/02 09:16:26;;;;;;;13.13;10.93;;;;;;;-143.10;90.66;51071.38;5008899;28;20057;-69
2022/07/02 09:19:09;;;;;;;11.98;10.32;;;;;;;-143.10;86.98;51104.66;4990659;28;20064;-69
2022/07/02 09:21:58;;;;;;;14.38;11.10;;;;;;;-143.10;87.99;51051.78;5007848;28;20045;-69
2022/07/02 09:24:43;;;;;;;14.10;10.70;;;;;;;-143.10;91.31;51065.50;5008587;28;20065;-69
2022/07/02 09:27:39;;;;;;;16.35;10.50;;;;;;;-143.10;91.09;51092.91;4983508;28;20079;-70
2022/07/02 09:30:18;;;;;;;19.33;11.00;;;;;;;-143.10;92.53;51073.34;5023330;28;20639;-70
2022/07/02 09:33:31;;;;;;;13.10;10.70;;;;;;;-143.10;91.96;51045.91;5015386;28;20066;-71
2022/07/02 09:36:14;;;;;;;10.32;9.23;;;;;;;-143.10;87.53;51067.47;5009037;28;20560;-71
2022/07/02 09:39:10;;;;;;;13.52;9.32;;;;;;;-143.10;85.57;51085.06;5012832;28;20135;-68
2022/07/02 09:41:45;;;;;;;12.30;9.25;;;;;;;-143.10;85.99;51081.16;5003943;28;20053;-67
2022/07/02 09:44:42;;;;;;;11.57;9.20;;;;;;;-143.10;85.77;51042.00;4988841;28;20058;-68
2022/07/02 09:47:28;;;;;;;10.98;9.00;;;;;;;-143.10;91.00;51108.56;5001201;28;20050;-67
2022/07/02 09:50:21;;;;;;;10.75;9.65;;;;;;;-143.10;92.36;51061.59;5010609;28;20042;-68
2022/07/02 09:53:05;;;;;;;10.25;9.02;;;;;;;-143.10;89.10;51065.50;5009117;28;20077;-71
2022/07/02 09:56:00;;;;;;;11.88;8.68;;;;;;;-143.10;90.18;51051.78;5007206;28;20056;-73
2022/07/02 09:58:35;;;;;;;12.65;9.70;;;;;;;-143.10;85.92;51085.06;5016013;28;20136;-69
2022/07/02 10:01:30;;;;;;;10.68;8.55;;;;;;;-143.10;84.71;51061.59;5012334;28;20041;-72
2022/07/02 10:04:32;;;;;;;11.52;9.57;;;;;;;-143.10;81.84;51042.00;5025619;28;20804;-72
2022/07/02 10:07:15;;;;;;;12.20;9.15;;;;;;;-143.10;83.29;51092.91;5027936;28;20053;-70
2022/07/02 10:10:12;;;;;;;13.90;8.80;;;;;;;-143.10;86.31;51067.47;5019121;28;20057;-70
2022/07/02 10:13:03;;;;;;;11.00;8.32;;;;;;;-143.10;82.34;51087.03;4995611;28;20045;-68
2022/07/02 10:16:06;;;;;;;10.35;8.63;;;;;;;-143.10;81.32;51022.44;5008411;28;20052;-70
2022/07/02 10:18:42;;;;;;;13.20;7.85;;;;;;;-143.10;80.47;51059.63;5008225;28;20049;-68
2022/07/02 10:21:38;;;;;;;10.38;8.50;;;;;;;-143.10;83.35;51065.50;5007414;28;20100;-69
2022/07/02 10:24:13;;;;;;;10.75;7.95;;;;;;;-143.10;79.57;51045.91;5007228;28;20061;-69
2022/07/02 10:27:10;;;;;;;13.73;8.30;;;;;;;-143.10;80.63;51065.50;5007250;28;20058;-70
2022/07/02 10:29:46;;;;;;;10.93;7.45;;;;;;;-143.10;85.83;51065.50;4997958;28;20057;-69
2022/07/02 10:32:53;;;;;;;10.27;8.68;;;;;;;-143.10;82.45;51020.47;4995804;28;20062;-68
2022/07/02 10:35:37;;;;;;;14.98;9.40;;;;;;;-143.10;83.41;51092.91;4987576;28;20105;-67
2022/07/02 10:38:44;;;;;;;13.82;8.90;;;;;;;-143.10;85.58;51057.66;4986357;28;20058;-68
2022/07/02 10:41:25;;;;;;;15.75;9.38;;;;;;;-143.10;81.97;51081.16;4978710;28;20169;-68
2022/07/02 10:44:22;;;;;;;12.63;8.75;;;;;;;-143.10;80.38;51053.75;4994502;28;20148;-68
2022/07/02 10:47:00;;;;;;;13.00;8.45;;;;;;;-143.10;84.00;51065.50;5012449;28;20049;-69
2022/07/02 10:50:07;;;;;;;9.52;8.63;;;;;;;-143.10;84.59;51071.38;5004582;28;20046;-66
2022/07/02 10:52:51;;;;;;;11.90;8.27;;;;;;;-143.10;81.68;51022.44;4664682;28;10000179;-76
2022/07/02 10:55:42;;;;;;;9.43;8.50;;;;;;;-143.10;80.80;51065.50;5010942;28;20069;-69
2022/07/02 10:58:36;;;;;;;12.88;8.68;;;;;;;-143.10;83.74;51051.78;4995379;28;20552;-70
2022/07/02 11:01:25;;;;;;;10.23;7.95;;;;;;;-143.10;80.98;51067.47;4979463;28;20050;-72
2022/07/02 11:04:15;;;;;;;9.70;7.47;;;;;;;-143.10;80.32;51038.09;4997838;28;20046;-72
2022/07/02 11:07:13;;;;;;;11.27;8.13;;;;;;;-143.10;83.75;51042.00;5002053;28;20052;-70
2022/07/02 11:09:50;;;;;;;9.30;7.70;;;;;;;-143.10;81.62;51022.44;4990270;28;20173;-69
2022/07/02 11:13:22;;;;;;;15.35;8.75;;;;;;;-143.10;78.80;51055.72;4974985;28;20053;-68
2022/07/02 11:16:49;;;;;;;9.93;7.90;;;;;;;-143.10;83.52;51042.00;4989073;28;20500;-71
2022/07/02 11:19:38;;;;;;;12.35;9.27;;;;;;;-143.10;83.79;51045.91;4978674;28;20057;-70
2022/07/02 11:22:22;;;;;;;9.30;7.78;;;;;;;-143.10;81.04;51069.41;4989026;28;20438;-68
2022/07/02 11:25:11;;;;;;;10.63;9.40;;;;;;;-143.10;84.59;51090.94;4976739;28;20042;-71
2022/07/02 11:28:09;;;;;;;17.38;9.35;;;;;;;-143.10;80.82;51042.00;4995269;28;20042;-71
2022/07/02 11:31:05;;;;;;;11.70;8.82;;;;;;;-143.10;88.68;51071.38;4986531;28;20042;-69
2022/07/02 11:33:52;;;;;;;17.08;10.02;;;;;;;-143.10;88.51;51053.75;4987018;28;20129;-72
2022/07/02 11:36:49;;;;;;;12.18;9.45;;;;;;;-143.10;89.19;51075.28;4998056;28;20049;-70
2022/07/02 11:39:26;;;;;;;14.32;10.07;;;;;;;-143.10;90.41;51053.75;5006550;28;20046;-68
2022/07/02 11:42:21;;;;;;;12.98;10.10;;;;;;;-143.10;88.95;51024.38;4994357;28;20046;-68
2022/07/02 11:45:00;;;;;;;10.95;9.15;;;;;;;-143.10;83.78;51032.22;4977549;28;20053;-68
2022/07/02 11:47:57;;;;;;;11.18;9.02;;;;;;;-143.10;84.34;51077.25;4988231;28;20046;-68
2022/07/02 11:50:33;;;;;;;10.30;9.02;;;;;;;-143.10;88.27;51081.16;4999602;28;20042;-70
2022/07/02 11:53:23;;;;;;;14.15;9.55;;;;;;;-143.10;88.99;51034.19;4985921;28;20049;-70
2022/07/02 11:56:13;;;;;;;15.05;8.50;;;;;;;-143.10;88.12;51100.75;4986332;28;20105;-70
2022/07/02 11:59:02;;;;;;;10.35;8.20;;;;;;;-143.10;87.31;51073.34;4986233;28;20038;-70
2022/07/02 12:01:53;;;;;;;12.07;8.50;;;;;;;-143.10;88.36;51038.09;4986552;28;20057;-70
2022/07/02 12:04:39;;;;;;;10.27;9.10;;;;;;;-143.10;81.99;51087.03;4968222;28;20117;-70
2022/07/02 12:07:28;;;;;;;11.45;8.65;;;;;;;-143.10;89.03;51045.91;4984175;28;20054;-71
2022/07/02 12:10:12;;;;;;;10.90;8.98;;;;;;;-143.10;89.99;51055.72;4969117;28;20054;-70
2022/07/02 12:13:01;;;;;;;17.25;8.82;;;;;;;-143.10;89.13;51069.41;4985365;28;20141;-70
2022/07/02 12:15:51;;;;;;;11.80;9.38;;;;;;;-143.10;89.46;51040.03;5001485;28;20046;-71
2022/07/02 12:18:40;;;;;;;14.32;8.30;;;;;;;-143.10;90.18;51057.66;4989462;28;20103;-70
2022/07/02 12:21:23;;;;;;;11.82;8.88;;;;;;;-143.10;92.00;51049.84;4988175;28;20116;-70
2022/07/02 12:24:24;;;;;;;14.00;8.88;;;;;;;-143.10;87.77;51016.56;4984881;28;20477;-70
2022/07/02 12:27:09;;;;;;;13.02;9.07;;;;;;;-143.10;88.66;51061.59;4986738;28;20046;-70
2022/07/02 12:29:58;;;;;;;11.65;8.85;;;;;;;-143.10;93.08;51053.75;4986334;28;20042;-70
2022/07/02 12:32:41;;;;;;;14.57;9.27;;;;;;;-143.10;90.58;51061.59;4970867;28;20145;-70
2022/07/02 12:35:32;;;;;;;13.35;8.48;;;;;;;-143.10;87.33;51036.13;4986509;28;20046;-71
2022/07/02 12:38:14;;;;;;;12.38;8.85;;;;;;;-143.10;87.31;51061.59;4969117;28;20054;-71